createdAt,value
2018-03-27T00:02:11.921Z,8.47
2018-03-27T00:04:39.760Z,7.17
2018-03-27T00:07:07.437Z,7.33
2018-03-27T00:09:35.089Z,7.67
2018-03-27T00:12:02.974Z,7.40
2018-03-27T00:14:30.658Z,7.20
2018-03-27T00:16:58.254Z,8.27
2018-03-27T00:19:25.833Z,7.80
2018-03-27T00:21:54.112Z,7.80
2018-03-27T00:24:21.706Z,7.93
2018-03-27T00:27:01.218Z,8.50
2018-03-27T00:29:40.512Z,8.50
2018-03-27T00:32:19.918Z,8.03
2018-03-27T00:34:59.287Z,8.83
2018-03-27T00:37:38.877Z,8.70
2018-03-27T00:40:18.428Z,7.90
2018-03-27T00:42:51.956Z,7.90
2018-03-27T00:45:19.853Z,8.70
2018-03-27T00:47:47.522Z,8.87
2018-03-27T00:50:15.320Z,8.70
2018-03-27T00:52:42.969Z,9.23
2018-03-27T00:55:10.695Z,8.60
2018-03-27T00:57:38.599Z,8.30
2018-03-27T01:00:06.470Z,8.23
2018-03-27T01:02:34.297Z,8.77
2018-03-27T01:05:07.463Z,8.83
2018-03-27T01:07:35.086Z,8.27
2018-03-27T01:10:02.686Z,9.20
2018-03-27T01:12:30.354Z,10.10
2018-03-27T01:14:58.739Z,9.33
2018-03-27T01:17:26.415Z,9.07
2018-03-27T01:19:54.374Z,8.67
2018-03-27T01:22:22.039Z,7.63
2018-03-27T01:24:49.759Z,8.70
2018-03-27T01:27:17.633Z,9.60
2018-03-27T01:29:45.544Z,9.03
2018-03-27T01:32:13.142Z,8.80
2018-03-27T01:34:40.728Z,9.30
2018-03-27T01:37:09.263Z,8.77
2018-03-27T01:39:36.911Z,8.20
2018-03-27T01:42:04.500Z,10.03
2018-03-27T01:44:32.171Z,8.57
2018-03-27T01:47:00.158Z,9.43
2018-03-27T01:49:27.873Z,9.63
2018-03-27T01:51:56.081Z,9.50
2018-03-27T01:54:23.883Z,8.37
2018-03-27T01:56:51.571Z,9.40
2018-03-27T01:59:19.646Z,9.37
2018-03-27T02:01:47.307Z,8.43
2018-03-27T02:04:15.042Z,9.50
2018-03-27T02:06:43.056Z,9.50
2018-03-27T02:09:10.817Z,9.30
2018-03-27T02:11:44.216Z,9.57
2018-03-27T02:14:17.837Z,9.47
2018-03-27T02:16:51.304Z,10.83
2018-03-27T02:19:24.634Z,9.27
2018-03-27T02:21:52.190Z,10.20
2018-03-27T02:24:20.416Z,9.83
2018-03-27T02:26:48.142Z,9.67
2018-03-27T02:29:15.867Z,10.07
2018-03-27T02:31:44.122Z,9.60
2018-03-27T02:34:11.873Z,9.60
2018-03-27T02:36:39.493Z,10.87
2018-03-27T02:39:07.220Z,11.10
2018-03-27T02:41:34.860Z,10.20
2018-03-27T02:44:02.469Z,10.10
2018-03-27T02:46:30.210Z,10.33
2018-03-27T02:48:58.071Z,10.20
2018-03-27T02:51:26.602Z,10.20
2018-03-27T02:53:54.454Z,10.53
2018-03-27T02:56:22.119Z,11.00
2018-03-27T02:58:49.775Z,11.13
2018-03-27T03:01:17.417Z,10.27
2018-03-27T03:03:45.199Z,10.40
2018-03-27T03:06:12.886Z,9.83
2018-03-27T03:08:40.877Z,11.10
2018-03-27T03:11:08.532Z,10.17
2018-03-27T03:13:36.261Z,11.10
2018-03-27T03:16:03.879Z,10.77
2018-03-27T03:18:31.488Z,9.70
2018-03-27T03:20:59.167Z,11.10
2018-03-27T03:23:26.946Z,9.07
2018-03-27T03:25:54.525Z,10.53
2018-03-27T03:28:22.232Z,10.73
2018-03-27T03:30:49.854Z,11.20
2018-03-27T03:33:17.481Z,10.80
2018-03-27T03:35:45.708Z,11.20
2018-03-27T03:38:13.303Z,10.90
2018-03-27T03:40:40.965Z,10.93
2018-03-27T03:43:08.599Z,11.47
2018-03-27T03:45:36.271Z,12.13
2018-03-27T03:48:03.932Z,11.90
2018-03-27T03:50:31.555Z,12.43
2018-03-27T03:52:59.136Z,11.87
2018-03-27T03:55:26.841Z,12.00
2018-03-27T03:57:54.439Z,12.73
2018-03-27T04:00:22.143Z,12.87
2018-03-27T04:02:49.737Z,13.90
2018-03-27T04:05:17.599Z,12.47
2018-03-27T04:07:45.248Z,14.50
2018-03-27T04:10:13.295Z,14.67
2018-03-27T04:12:40.945Z,16.53
2018-03-27T04:15:08.557Z,14.83
2018-03-27T04:17:36.196Z,13.97
2018-03-27T04:20:03.779Z,14.93
2018-03-27T04:22:31.439Z,14.80
2018-03-27T04:24:59.053Z,13.97
2018-03-27T04:27:26.744Z,15.77
2018-03-27T04:29:54.379Z,13.17
2018-03-27T04:32:22.007Z,14.33
2018-03-27T04:34:49.605Z,14.17
2018-03-27T04:37:17.229Z,14.40
2018-03-27T04:39:44.865Z,16.20
2018-03-27T04:42:12.549Z,12.63
2018-03-27T04:44:40.177Z,13.80
2018-03-27T04:47:07.788Z,13.50
2018-03-27T04:49:35.411Z,14.57
2018-03-27T04:52:03.003Z,16.40
2018-03-27T04:54:30.667Z,16.93
2018-03-27T04:56:58.302Z,20.73
2018-03-27T04:59:25.902Z,22.30
2018-03-27T05:01:53.529Z,21.33
2018-03-27T05:04:21.113Z,22.27
2018-03-27T05:06:48.746Z,22.73
2018-03-27T05:09:16.337Z,21.13
2018-03-27T05:11:44.254Z,22.40
2018-03-27T05:14:12.147Z,23.40
2018-03-27T05:16:39.914Z,22.30
2018-03-27T05:19:07.504Z,19.97
2018-03-27T05:21:35.169Z,18.43
2018-03-27T05:24:02.745Z,19.40
2018-03-27T05:26:30.415Z,19.10
2018-03-27T05:28:58.068Z,18.20
2018-03-27T05:31:25.842Z,18.90
2018-03-27T05:33:53.664Z,21.23
2018-03-27T05:36:21.551Z,22.73
2018-03-27T05:38:49.384Z,23.37
2018-03-27T05:41:17.378Z,25.70
2018-03-27T05:43:45.247Z,26.10
2018-03-27T05:46:15.047Z,25.13
2018-03-27T05:48:42.647Z,25.27
2018-03-27T05:51:10.325Z,24.13
2018-03-27T05:53:38.010Z,20.47
2018-03-27T05:56:05.645Z,23.30
2018-03-27T05:58:33.381Z,24.93
2018-03-27T06:01:01.032Z,23.30
2018-03-27T06:03:28.629Z,23.50
2018-03-27T06:05:56.412Z,23.87
2018-03-27T06:08:24.091Z,24.50
2018-03-27T06:10:51.674Z,23.50
2018-03-27T06:13:19.641Z,25.23
2018-03-27T06:15:48.403Z,24.70
2018-03-27T06:18:16.047Z,26.67
2018-03-27T06:20:43.697Z,27.13
2018-03-27T06:23:11.354Z,26.97
2018-03-27T06:25:39.370Z,26.43
2018-03-27T06:28:06.958Z,26.37
2018-03-27T06:30:34.595Z,25.33
2018-03-27T06:33:02.563Z,22.40
2018-03-27T06:35:30.280Z,22.30
2018-03-27T06:37:57.956Z,25.17
2018-03-27T06:40:26.943Z,25.07
2018-03-27T06:42:54.861Z,25.77
2018-03-27T06:45:22.457Z,26.97
2018-03-27T06:47:50.067Z,27.70
2018-03-27T06:50:17.655Z,26.30
2018-03-27T06:52:45.368Z,26.77
2018-03-27T06:55:13.121Z,28.60
2018-03-27T06:57:40.972Z,28.03
2018-03-27T07:00:08.618Z,28.30
2018-03-27T07:02:36.348Z,25.70
2018-03-27T07:05:04.328Z,28.30
2018-03-27T07:07:32.002Z,27.50
2018-03-27T07:09:59.960Z,31.03
2018-03-27T07:12:27.674Z,28.33
2018-03-27T07:14:55.878Z,29.80
2018-03-27T07:17:23.516Z,31.90
2018-03-27T07:19:51.220Z,29.03
2018-03-27T07:22:18.904Z,30.27
2018-03-27T07:24:46.533Z,30.37
2018-03-27T07:27:14.313Z,31.17
2018-03-27T07:29:42.290Z,31.03
2018-03-27T07:32:13.297Z,31.57
2018-03-27T07:34:40.955Z,32.90
2018-03-27T07:37:08.546Z,32.50
2018-03-27T07:39:36.159Z,31.63
2018-03-27T07:42:03.808Z,32.37
2018-03-27T07:44:31.414Z,33.70
2018-03-27T07:46:59.014Z,32.23
2018-03-27T07:49:26.629Z,32.60
2018-03-27T07:51:54.353Z,30.17
2018-03-27T07:54:21.952Z,29.30
2018-03-27T07:56:49.554Z,32.27
2018-03-27T07:59:17.206Z,30.77
2018-03-27T08:01:44.877Z,32.80
2018-03-27T08:04:12.482Z,34.03
2018-03-27T08:06:40.170Z,36.90
2018-03-27T08:09:07.750Z,34.20
2018-03-27T08:11:35.397Z,34.43
2018-03-27T08:14:02.988Z,33.10
2018-03-27T08:16:30.588Z,32.10
2018-03-27T08:18:58.209Z,33.40
2018-03-27T08:21:25.963Z,30.83
2018-03-27T08:23:53.657Z,33.50
2018-03-27T08:26:21.234Z,33.27
2018-03-27T08:28:48.866Z,34.40
2018-03-27T08:31:16.462Z,30.10
2018-03-27T08:33:44.113Z,28.50
2018-03-27T08:36:12.103Z,27.10
2018-03-27T08:38:39.652Z,27.00
2018-03-27T08:41:07.255Z,27.63
2018-03-27T08:43:35.018Z,29.00
2018-03-27T08:46:02.645Z,27.03
2018-03-27T08:48:30.332Z,29.00
2018-03-27T08:50:58.290Z,24.87
2018-03-27T08:53:25.895Z,25.00
2018-03-27T08:55:53.573Z,26.40
2018-03-27T08:58:21.252Z,26.47
2018-03-27T09:00:48.881Z,25.27
2018-03-27T09:03:16.891Z,23.40
2018-03-27T09:05:44.495Z,25.00
2018-03-27T09:08:12.116Z,23.70
2018-03-27T09:10:39.844Z,26.83
2018-03-27T09:13:07.510Z,23.40
2018-03-27T09:15:35.104Z,21.27
2018-03-27T09:18:02.762Z,21.90
2018-03-27T09:20:30.376Z,24.13
2018-03-27T09:22:57.986Z,21.07
2018-03-27T09:25:25.654Z,22.00
2018-03-27T09:27:53.312Z,21.37
2018-03-27T09:30:20.903Z,20.50
2018-03-27T09:32:48.558Z,21.53
2018-03-27T09:35:16.231Z,19.30
2018-03-27T09:37:43.905Z,17.63
2018-03-27T09:40:11.545Z,19.30
2018-03-27T09:42:39.527Z,19.23
2018-03-27T09:45:07.112Z,17.27
2018-03-27T09:47:35.130Z,18.40
2018-03-27T09:50:02.736Z,18.87
2018-03-27T09:52:30.341Z,19.70
2018-03-27T09:54:58.234Z,17.90
2018-03-27T09:57:25.847Z,17.53
2018-03-27T09:59:53.468Z,17.07
2018-03-27T10:02:21.530Z,13.70
2018-03-27T10:04:49.121Z,14.73
2018-03-27T10:07:16.726Z,12.17
2018-03-27T10:09:44.384Z,10.73
2018-03-27T10:12:12.010Z,12.13
2018-03-27T10:14:39.681Z,10.17
2018-03-27T10:17:07.303Z,8.17
2018-03-27T10:19:35.281Z,10.77
2018-03-27T10:22:02.892Z,9.80
2018-03-27T10:24:30.560Z,10.77
2018-03-27T10:26:58.269Z,9.07
2018-03-27T10:29:25.858Z,6.73
2018-03-27T10:31:53.547Z,8.37
2018-03-27T10:34:21.487Z,8.97
2018-03-27T10:36:49.165Z,9.47
2018-03-27T10:39:17.092Z,8.27
2018-03-27T10:41:44.797Z,9.43
2018-03-27T10:44:12.465Z,7.67
2018-03-27T10:46:40.088Z,8.30
2018-03-27T10:49:07.703Z,8.40
2018-03-27T10:51:35.611Z,7.70
2018-03-27T10:54:03.634Z,8.00
2018-03-27T10:56:31.289Z,7.80
2018-03-27T10:58:58.887Z,6.93
2018-03-27T11:01:26.748Z,8.13
2018-03-27T11:03:54.437Z,7.43
2018-03-27T11:06:22.128Z,8.07
2018-03-27T11:08:49.728Z,8.63
2018-03-27T11:11:17.354Z,6.80
2018-03-27T11:13:44.942Z,7.13
2018-03-27T11:16:12.948Z,7.83
2018-03-27T11:18:40.616Z,8.57
2018-03-27T11:21:08.271Z,7.60
2018-03-27T11:23:35.861Z,7.43
2018-03-27T11:26:03.813Z,8.10
2018-03-27T11:28:31.470Z,8.73
2018-03-27T11:30:59.082Z,8.37
2018-03-27T11:33:26.756Z,7.60
2018-03-27T11:35:54.368Z,6.53
2018-03-27T11:38:21.989Z,9.40
2018-03-27T11:40:49.586Z,7.57
2018-03-27T11:43:17.251Z,9.00
2018-03-27T11:45:44.854Z,8.20
2018-03-27T11:48:12.483Z,9.07
2018-03-27T11:50:40.096Z,9.60
2018-03-27T11:53:07.702Z,10.37
2018-03-27T11:55:35.408Z,10.83
2018-03-27T11:58:03.061Z,10.13
2018-03-27T12:00:30.884Z,10.87
2018-03-27T12:02:58.632Z,10.27
2018-03-27T12:05:26.274Z,10.00
2018-03-27T12:07:53.896Z,9.87
2018-03-27T12:10:21.525Z,10.03
2018-03-27T12:12:49.244Z,10.67
2018-03-27T12:15:16.856Z,10.10
2018-03-27T12:17:44.459Z,11.03
2018-03-27T12:20:12.451Z,10.50
2018-03-27T12:22:40.107Z,8.87
2018-03-27T12:25:07.782Z,11.00
2018-03-27T12:27:35.485Z,9.47
2018-03-27T12:30:03.439Z,10.77
2018-03-27T12:32:31.082Z,10.97
2018-03-27T12:34:59.046Z,9.13
2018-03-27T12:37:26.632Z,8.07
2018-03-27T12:39:54.227Z,8.60
2018-03-27T12:42:21.917Z,9.60
2018-03-27T12:44:49.521Z,8.60
2018-03-27T12:47:17.490Z,7.17
2018-03-27T12:49:45.156Z,8.03
2018-03-27T12:52:12.758Z,11.27
2018-03-27T12:54:40.393Z,9.63
2018-03-27T12:57:08.339Z,10.07
2018-03-27T12:59:36.206Z,10.70
2018-03-27T13:02:04.347Z,10.43
2018-03-27T13:04:31.955Z,11.37
2018-03-27T13:06:59.549Z,15.53
2018-03-27T13:09:27.251Z,16.03
2018-03-27T13:11:54.853Z,13.20
2018-03-27T13:14:22.786Z,14.33
2018-03-27T13:16:50.421Z,12.47
2018-03-27T13:19:18.023Z,14.20
2018-03-27T13:21:45.644Z,12.90
2018-03-27T13:24:13.254Z,10.67
2018-03-27T13:26:40.945Z,13.97
2018-03-27T13:29:08.872Z,12.00
2018-03-27T13:31:36.524Z,12.60
2018-03-27T13:34:04.404Z,11.53
2018-03-27T13:36:32.167Z,10.00
2018-03-27T13:38:59.873Z,9.90
2018-03-27T13:41:27.449Z,9.43
2018-03-27T13:43:55.079Z,9.50
2018-03-27T13:46:22.794Z,9.47
2018-03-27T13:48:50.409Z,8.90
2018-03-27T13:51:17.996Z,8.40
2018-03-27T13:53:45.648Z,8.57
2018-03-27T13:56:13.316Z,8.60
2018-03-27T13:58:40.934Z,9.37
2018-03-27T14:01:08.553Z,9.03
2018-03-27T14:03:36.453Z,9.03
2018-03-27T14:06:04.122Z,8.30
2018-03-27T14:08:31.708Z,9.17
2018-03-27T14:10:59.345Z,9.17
2018-03-27T14:13:26.947Z,8.30
2018-03-27T14:15:54.569Z,9.30
2018-03-27T14:18:22.240Z,8.43
2018-03-27T14:20:49.894Z,9.87
2018-03-27T14:23:17.495Z,8.20
2018-03-27T14:25:45.159Z,9.70
2018-03-27T14:28:12.788Z,9.83
2018-03-27T14:30:40.378Z,9.20
2018-03-27T14:33:08.046Z,9.90
2018-03-27T14:35:35.951Z,8.97
2018-03-27T14:38:03.622Z,10.50
2018-03-27T14:40:31.232Z,9.37
2018-03-27T14:42:58.831Z,9.13
2018-03-27T14:45:26.713Z,10.80
2018-03-27T14:47:54.307Z,9.67
2018-03-27T14:50:21.907Z,10.03
2018-03-27T14:52:49.589Z,11.20
2018-03-27T14:55:17.230Z,12.10
2018-03-27T14:57:44.836Z,11.93
2018-03-27T15:00:12.501Z,11.50
2018-03-27T15:02:40.472Z,12.10
2018-03-27T15:05:08.077Z,12.10
2018-03-27T15:07:35.981Z,13.00
2018-03-27T15:10:03.594Z,12.70
2018-03-27T15:12:31.607Z,13.00
2018-03-27T15:14:59.441Z,12.73
2018-03-27T15:17:27.040Z,12.23
2018-03-27T15:19:54.662Z,11.37
2018-03-27T15:22:22.320Z,13.60
2018-03-27T15:24:49.977Z,12.23
2018-03-27T15:27:17.899Z,13.47
2018-03-27T15:29:45.571Z,13.87
2018-03-27T15:32:13.240Z,12.97
2018-03-27T15:34:40.866Z,12.97
2018-03-27T15:37:08.507Z,13.47
2018-03-27T15:39:36.161Z,13.30
2018-03-27T15:42:03.753Z,13.33
2018-03-27T15:44:31.424Z,13.97
2018-03-27T15:46:59.007Z,13.40
2018-03-27T15:49:26.600Z,14.13
2018-03-27T15:51:54.248Z,13.60
2018-03-27T15:54:21.850Z,13.47
2018-03-27T15:56:49.508Z,14.10
2018-03-27T15:59:17.470Z,11.03
2018-03-27T16:01:45.146Z,12.90
2018-03-27T16:04:12.767Z,12.93
2018-03-27T16:06:40.449Z,12.90
2018-03-27T16:09:08.055Z,14.50
2018-03-27T16:11:35.667Z,14.30
2018-03-27T16:14:03.383Z,14.87
2018-03-27T16:16:31.368Z,15.17
2018-03-27T16:18:58.977Z,16.60
2018-03-27T16:21:27.366Z,15.47
2018-03-27T16:23:55.020Z,15.60
2018-03-27T16:26:22.688Z,14.50
2018-03-27T16:28:50.271Z,15.83
2018-03-27T16:31:17.914Z,15.43
2018-03-27T16:33:45.506Z,15.70
2018-03-27T16:36:13.094Z,16.63
2018-03-27T16:38:40.792Z,16.57
2018-03-27T16:41:08.379Z,16.10
2018-03-27T16:43:35.997Z,17.17
2018-03-27T16:46:03.933Z,13.80
2018-03-27T16:48:31.540Z,15.03
2018-03-27T16:50:59.121Z,15.80
2018-03-27T16:53:27.105Z,14.50
2018-03-27T16:55:55.137Z,15.00
2018-03-27T16:58:22.722Z,28.30
2018-03-27T17:00:50.703Z,19.07
2018-03-27T17:03:18.364Z,17.93
2018-03-27T17:05:46.334Z,16.87
2018-03-27T17:08:13.983Z,16.07
2018-03-27T17:10:41.645Z,15.70
2018-03-27T17:13:09.238Z,17.33
2018-03-27T17:15:36.897Z,14.90
2018-03-27T17:18:05.103Z,14.40
2018-03-27T17:20:32.688Z,15.40
2018-03-27T17:23:00.351Z,16.37
2018-03-27T17:25:27.952Z,16.03
2018-03-27T17:27:55.604Z,16.87
2018-03-27T17:30:23.331Z,16.73
2018-03-27T17:32:54.063Z,17.80
2018-03-27T17:35:21.666Z,17.17
2018-03-27T17:37:49.473Z,19.80
2018-03-27T17:40:17.301Z,19.90
2018-03-27T17:42:45.150Z,18.90
2018-03-27T17:45:13.208Z,18.27
2018-03-27T17:47:40.798Z,20.67
2018-03-27T17:50:08.461Z,19.97
2018-03-27T17:52:36.572Z,17.50
2018-03-27T17:55:04.455Z,18.47
2018-03-27T17:57:32.037Z,16.73
2018-03-27T17:59:59.662Z,15.33
2018-03-27T18:02:27.581Z,16.70
2018-03-27T18:04:55.558Z,17.37
2018-03-27T18:07:23.154Z,16.50
2018-03-27T18:09:51.090Z,16.87
2018-03-27T18:12:18.699Z,16.23
2018-03-27T18:14:46.593Z,21.80
2018-03-27T18:17:14.169Z,19.97
2018-03-27T18:19:42.009Z,16.87
2018-03-27T18:22:09.696Z,18.73
2018-03-27T18:24:37.567Z,17.87
2018-03-27T18:27:05.158Z,16.53
2018-03-27T18:29:32.849Z,18.97
2018-03-27T18:32:00.541Z,18.17
2018-03-27T18:34:28.424Z,18.80
2018-03-27T18:36:56.021Z,17.53
2018-03-27T18:39:23.678Z,18.13
2018-03-27T18:41:51.615Z,18.50
2018-03-27T18:44:19.269Z,18.10
2018-03-27T18:46:46.952Z,20.73
2018-03-27T18:49:14.662Z,22.20
2018-03-27T18:51:42.267Z,20.90
2018-03-27T18:54:09.907Z,20.27
2018-03-27T18:56:37.902Z,20.13
2018-03-27T18:59:05.490Z,20.80
2018-03-27T19:01:33.487Z,21.50
2018-03-27T19:04:01.060Z,21.40
2018-03-27T19:06:28.968Z,23.30
2018-03-27T19:08:56.586Z,21.43
2018-03-27T19:11:24.195Z,21.27
2018-03-27T19:13:51.845Z,21.10
2018-03-27T19:16:19.497Z,22.67
2018-03-27T19:18:47.059Z,21.63
2018-03-27T19:21:14.673Z,23.70
2018-03-27T19:23:42.659Z,22.90
2018-03-27T19:26:10.290Z,23.87
2018-03-27T19:28:37.909Z,21.80
2018-03-27T19:31:05.525Z,25.00
2018-03-27T19:33:33.109Z,23.23
2018-03-27T19:36:00.973Z,24.30
2018-03-27T19:38:28.839Z,25.70
2018-03-27T19:40:56.532Z,24.23
2018-03-27T19:43:24.180Z,23.60
2018-03-27T19:45:52.124Z,24.00
2018-03-27T19:48:19.733Z,24.63
2018-03-27T19:50:47.402Z,23.73
2018-03-27T19:53:15.066Z,24.50
2018-03-27T19:55:42.659Z,23.80
2018-03-27T19:58:10.378Z,25.27
2018-03-27T20:00:38.010Z,24.50
2018-03-27T20:03:05.605Z,24.30
2018-03-27T20:05:33.327Z,26.30
2018-03-27T20:08:00.913Z,24.03
2018-03-27T20:10:28.518Z,24.20
2018-03-27T20:12:56.137Z,25.53
2018-03-27T20:15:23.859Z,26.37
2018-03-27T20:17:51.558Z,26.20
2018-03-27T20:20:19.542Z,28.37
2018-03-27T20:22:47.667Z,28.30
2018-03-27T20:25:15.254Z,31.60
2018-03-27T20:27:43.143Z,28.13
2018-03-27T20:30:11.126Z,29.00
2018-03-27T20:32:38.777Z,28.47
2018-03-27T20:35:06.914Z,26.83
2018-03-27T20:37:34.505Z,26.57
2018-03-27T20:40:02.114Z,26.70
2018-03-27T20:42:30.192Z,27.40
2018-03-27T20:44:57.852Z,26.57
2018-03-27T20:47:25.440Z,27.00
2018-03-27T20:49:53.510Z,25.60
2018-03-27T20:52:21.153Z,25.40
2018-03-27T20:54:48.754Z,27.60
2018-03-27T20:57:16.448Z,25.70
2018-03-27T20:59:44.395Z,27.13
2018-03-27T21:02:12.288Z,29.07
2018-03-27T21:04:39.902Z,28.00
2018-03-27T21:07:07.582Z,27.83
2018-03-27T21:09:35.767Z,28.27
2018-03-27T21:12:04.196Z,29.17
2018-03-27T21:14:32.235Z,29.00
2018-03-27T21:17:00.166Z,29.50
2018-03-27T21:19:28.150Z,28.90
2018-03-27T21:21:56.104Z,31.37
2018-03-27T21:24:23.694Z,27.37
2018-03-27T21:26:51.378Z,28.70
2018-03-27T21:29:19.218Z,28.37
2018-03-27T21:31:46.796Z,28.63
2018-03-27T21:34:14.472Z,28.73
2018-03-27T21:36:42.146Z,28.97
2018-03-27T21:39:09.790Z,28.50
2018-03-27T21:41:37.730Z,28.57
2018-03-27T21:44:05.306Z,28.00
2018-03-27T21:46:33.305Z,27.30
2018-03-27T21:49:00.881Z,28.40
2018-03-27T21:51:28.468Z,28.77
2018-03-27T21:53:56.185Z,27.47
2018-03-27T21:56:23.772Z,30.33
2018-03-27T21:58:51.389Z,27.57
2018-03-27T22:01:19.434Z,29.70
2018-03-27T22:03:47.068Z,27.50
2018-03-27T22:06:14.727Z,28.50
2018-03-27T22:08:42.412Z,28.97
2018-03-27T22:11:10.013Z,26.07
2018-03-27T22:13:37.599Z,29.10
2018-03-27T22:16:05.230Z,25.50
2018-03-27T22:18:32.894Z,29.13
2018-03-27T22:21:00.529Z,27.47
2018-03-27T22:23:28.197Z,28.30
2018-03-27T22:25:55.878Z,29.43
2018-03-27T22:28:24.123Z,28.47
2018-03-27T22:30:51.715Z,28.43
2018-03-27T22:33:19.297Z,28.40
2018-03-27T22:35:47.214Z,29.17
2018-03-27T22:38:14.827Z,28.90
2018-03-27T22:40:43.796Z,31.03
2018-03-27T22:43:12.315Z,26.97
2018-03-27T22:45:43.907Z,26.67
2018-03-27T22:48:11.623Z,26.23
2018-03-27T22:50:39.202Z,28.63
2018-03-27T22:53:06.805Z,28.30
2018-03-27T22:55:34.516Z,26.03
2018-03-27T22:58:02.421Z,25.83
2018-03-27T23:00:30.086Z,27.63
2018-03-27T23:02:57.680Z,26.90
2018-03-27T23:05:25.315Z,27.60
2018-03-27T23:07:52.956Z,28.03
2018-03-27T23:10:20.942Z,26.67
2018-03-27T23:12:48.633Z,27.10
2018-03-27T23:15:16.239Z,28.57
2018-03-27T23:17:43.850Z,27.87
2018-03-27T23:20:11.441Z,28.60
2018-03-27T23:22:39.361Z,28.53
2018-03-27T23:25:06.989Z,29.20
2018-03-27T23:27:34.587Z,28.43
2018-03-27T23:30:02.178Z,28.10
2018-03-27T23:32:29.887Z,29.17
2018-03-27T23:34:57.570Z,28.23
2018-03-27T23:37:25.599Z,30.40
2018-03-27T23:39:53.609Z,28.63
2018-03-27T23:42:21.209Z,28.97
2018-03-27T23:44:49.149Z,28.77
2018-03-27T23:47:16.858Z,28.70
2018-03-27T23:49:44.875Z,27.93
2018-03-27T23:52:12.522Z,30.43
2018-03-27T23:54:40.228Z,28.97
2018-03-27T23:57:07.822Z,30.30
2018-03-27T23:59:35.487Z,30.03
